Airport View

Enter AWOS ICAO identifier for current METAR.

ex. KFNL

KOXV 200350Z AUTO 08003KT 7SM -UP FEW026 OVC033 04/04 A3021 RMK AO2

20 Mar 2019 03:52

Frequency: 119.775

Phone: 641-828-8406

Other Area AWOS: KPEA - KCNC - KTNU - KOOA

TAF AMD KDSM 192339Z 2000/2024 18005KT P6SM -RA SCT020 OVC035 TEMPO 2000/2004 4SM -RA SCT015 OVC025 FM200500 VRB03KT P6SM VCSH OVC020 FM200900 32004KT 5SM BR OVC008 FM201400 29008KT P6SM BKN020 FM201900 30012KT P6SM SCT035 FM202200 33012G21KT P6SM BKN040